sensor_id;sensor_type;location;lat;lon;timestamp;pressure;altitude;pressure_sealevel;temperature;humidity
61676;BME280;47574;52.090;5.244;2022-09-03T00:00:56;101113.0;;;24.42;31.63
61676;BME280;47574;52.090;5.244;2022-09-03T00:02:38;101108.0;;;24.37;31.71
61676;BME280;47574;52.090;5.244;2022-09-03T00:04:26;101113.0;;;24.25;31.98
61676;BME280;47574;52.090;5.244;2022-09-03T00:07:55;101108.0;;;24.29;31.98
61676;BME280;47574;52.090;5.244;2022-09-03T00:09:39;101105.0;;;24.2;32.0
61676;BME280;47574;52.090;5.244;2022-09-03T00:11:21;101102.0;;;24.23;32.01
61676;BME280;47574;52.090;5.244;2022-09-03T00:13:02;101105.0;;;24.17;32.12
61676;BME280;47574;52.090;5.244;2022-09-03T00:14:43;101105.0;;;24.2;32.04
61676;BME280;47574;52.090;5.244;2022-09-03T00:18:18;101103.0;;;24.15;32.22
61676;BME280;47574;52.090;5.244;2022-09-03T00:19:59;101107.0;;;24.14;32.24
61676;BME280;47574;52.090;5.244;2022-09-03T00:21:44;101103.0;;;24.18;32.19
61676;BME280;47574;52.090;5.244;2022-09-03T00:23:26;101106.0;;;24.14;32.22
61676;BME280;47574;52.090;5.244;2022-09-03T00:25:09;101108.0;;;24.1;32.35
61676;BME280;47574;52.090;5.244;2022-09-03T00:28:37;101105.0;;;24.0;32.42
61676;BME280;47574;52.090;5.244;2022-09-03T00:30:17;101100.0;;;24.0;32.39
61676;BME280;47574;52.090;5.244;2022-09-03T00:31:57;101099.0;;;23.97;32.43
61676;BME280;47574;52.090;5.244;2022-09-03T00:33:39;101097.0;;;23.99;32.49
61676;BME280;47574;52.090;5.244;2022-09-03T00:37:02;101096.0;;;24.07;32.35
61676;BME280;47574;52.090;5.244;2022-09-03T00:38:40;101096.0;;;23.97;32.46
61676;BME280;47574;52.090;5.244;2022-09-03T00:40:26;101096.0;;;23.96;32.56
61676;BME280;47574;52.090;5.244;2022-09-03T00:42:30;101092.0;;;24.0;32.42
61676;BME280;47574;52.090;5.244;2022-09-03T00:44:56;101093.0;;;23.9;32.71
61676;BME280;47574;52.090;5.244;2022-09-03T00:47:04;101091.0;;;23.99;32.49
61676;BME280;47574;52.090;5.244;2022-09-03T00:48:56;101093.0;;;24.14;32.35
61676;BME280;47574;52.090;5.244;2022-09-03T00:50:58;101092.0;;;23.92;32.55
61676;BME280;47574;52.090;5.244;2022-09-03T00:52:45;101093.0;;;24.12;32.28
61676;BME280;47574;52.090;5.244;2022-09-03T00:54:36;101096.0;;;24.02;32.49
61676;BME280;47574;52.090;5.244;2022-09-03T00:58:19;101095.0;;;24.03;32.51
61676;BME280;47574;52.090;5.244;2022-09-03T01:00:06;101092.0;;;24.1;32.28
61676;BME280;47574;52.090;5.244;2022-09-03T01:01:48;101090.0;;;23.96;32.49
61676;BME280;47574;52.090;5.244;2022-09-03T01:03:40;101090.0;;;23.95;32.61
61676;BME280;47574;52.090;5.244;2022-09-03T01:05:33;101089.0;;;23.99;32.53
61676;BME280;47574;52.090;5.244;2022-09-03T01:08:24;101095.0;;;24.01;32.46
61676;BME280;47574;52.090;5.244;2022-09-03T01:10:15;101088.0;;;23.75;32.82
61676;BME280;47574;52.090;5.244;2022-09-03T01:13:49;101094.0;;;23.99;32.46
61676;BME280;47574;52.090;5.244;2022-09-03T01:15:39;101092.0;;;23.91;32.67
61676;BME280;47574;52.090;5.244;2022-09-03T01:17:27;101093.0;;;23.9;32.71
61676;BME280;47574;52.090;5.244;2022-09-03T01:21:26;101097.0;;;23.86;32.69
61676;BME280;47574;52.090;5.244;2022-09-03T01:23:26;101097.0;;;24.02;32.53
61676;BME280;47574;52.090;5.244;2022-09-03T01:26:41;101095.0;;;24.0;32.49
61676;BME280;47574;52.090;5.244;2022-09-03T01:28:38;101100.0;;;24.09;32.37
61676;BME280;47574;52.090;5.244;2022-09-03T01:32:00;101094.0;;;23.77;32.92
61676;BME280;47574;52.090;5.244;2022-09-03T01:35:33;101100.0;;;23.98;32.5
61676;BME280;47574;52.090;5.244;2022-09-03T01:37:18;101103.0;;;23.95;32.62
61676;BME280;47574;52.090;5.244;2022-09-03T01:39:11;101105.0;;;24.06;32.46
61676;BME280;47574;52.090;5.244;2022-09-03T01:41:02;101105.0;;;24.06;32.5
61676;BME280;47574;52.090;5.244;2022-09-03T01:42:51;101100.0;;;23.92;32.71
61676;BME280;47574;52.090;5.244;2022-09-03T01:44:48;101100.0;;;23.87;32.81
61676;BME280;47574;52.090;5.244;2022-09-03T01:48:25;101100.0;;;23.96;32.71
61676;BME280;47574;52.090;5.244;2022-09-03T01:50:12;101097.0;;;23.96;32.65
61676;BME280;47574;52.090;5.244;2022-09-03T01:52:02;101098.0;;;23.97;32.65
61676;BME280;47574;52.090;5.244;2022-09-03T01:56:32;101095.0;;;23.88;32.78
61676;BME280;47574;52.090;5.244;2022-09-03T01:58:23;101098.0;;;23.79;32.94
61676;BME280;47574;52.090;5.244;2022-09-03T02:00:07;101103.0;;;23.75;33.03
61676;BME280;47574;52.090;5.244;2022-09-03T02:01:46;101105.0;;;23.89;32.92
61676;BME280;47574;52.090;5.244;2022-09-03T02:03:34;101102.0;;;23.96;32.75
61676;BME280;47574;52.090;5.244;2022-09-03T02:06:56;101097.0;;;23.83;32.99
61676;BME280;47574;52.090;5.244;2022-09-03T02:08:34;101097.0;;;23.75;33.03
61676;BME280;47574;52.090;5.244;2022-09-03T02:10:13;101094.0;;;23.66;33.17
61676;BME280;47574;52.090;5.244;2022-09-03T02:11:55;101093.0;;;23.79;32.92
61676;BME280;47574;52.090;5.244;2022-09-03T02:15:16;101093.0;;;23.91;32.8
61676;BME280;47574;52.090;5.244;2022-09-03T02:16:56;101090.0;;;23.7;33.18
61676;BME280;47574;52.090;5.244;2022-09-03T02:18:39;101089.0;;;23.55;33.33
61676;BME280;47574;52.090;5.244;2022-09-03T02:20:19;101093.0;;;23.56;33.42
61676;BME280;47574;52.090;5.244;2022-09-03T02:23:34;101091.0;;;23.62;33.24
61676;BME280;47574;52.090;5.244;2022-09-03T02:25:10;101093.0;;;23.61;33.42
61676;BME280;47574;52.090;5.244;2022-09-03T02:26:47;101098.0;;;23.57;33.43
61676;BME280;47574;52.090;5.244;2022-09-03T02:28:27;101097.0;;;23.54;33.49
61676;BME280;47574;52.090;5.244;2022-09-03T02:31:42;101100.0;;;23.52;33.47
61676;BME280;47574;52.090;5.244;2022-09-03T02:33:18;101098.0;;;23.51;33.54
61676;BME280;47574;52.090;5.244;2022-09-03T02:34:54;101092.0;;;23.36;33.86
61676;BME280;47574;52.090;5.244;2022-09-03T02:38:12;101089.0;;;23.48;33.72
61676;BME280;47574;52.090;5.244;2022-09-03T02:39:51;101091.0;;;23.3;33.96
61676;BME280;47574;52.090;5.244;2022-09-03T02:41:27;101091.0;;;23.23;34.14
61676;BME280;47574;52.090;5.244;2022-09-03T02:43:04;101083.0;;;23.18;34.14
61676;BME280;47574;52.090;5.244;2022-09-03T02:46:30;101091.0;;;23.25;34.07
61676;BME280;47574;52.090;5.244;2022-09-03T02:48:18;101089.0;;;23.23;34.05
61676;BME280;47574;52.090;5.244;2022-09-03T02:49:56;101089.0;;;23.31;33.96
61676;BME280;47574;52.090;5.244;2022-09-03T02:51:35;101088.0;;;23.23;34.03
61676;BME280;47574;52.090;5.244;2022-09-03T02:54:48;101085.0;;;23.08;34.32
61676;BME280;47574;52.090;5.244;2022-09-03T02:56:26;101084.0;;;23.23;34.14
61676;BME280;47574;52.090;5.244;2022-09-03T02:58:06;101082.0;;;23.04;34.39
61676;BME280;47574;52.090;5.244;2022-09-03T03:01:20;101082.0;;;22.98;34.47
61676;BME280;47574;52.090;5.244;2022-09-03T03:02:57;101081.0;;;23.05;34.36
61676;BME280;47574;52.090;5.244;2022-09-03T03:04:33;101082.0;;;23.09;34.35
61676;BME280;47574;52.090;5.244;2022-09-03T03:06:09;101083.0;;;23.1;34.31
61676;BME280;47574;52.090;5.244;2022-09-03T03:09:23;101082.0;;;23.21;34.18
61676;BME280;47574;52.090;5.244;2022-09-03T03:11:01;101080.0;;;23.08;34.31
61676;BME280;47574;52.090;5.244;2022-09-03T03:12:37;101080.0;;;23.14;34.26
61676;BME280;47574;52.090;5.244;2022-09-03T03:15:55;101080.0;;;23.18;34.25
61676;BME280;47574;52.090;5.244;2022-09-03T03:17:31;101075.0;;;23.11;34.26
61676;BME280;47574;52.090;5.244;2022-09-03T03:19:07;101070.0;;;23.09;34.21
61676;BME280;47574;52.090;5.244;2022-09-03T03:20:43;101068.0;;;23.11;34.28
61676;BME280;47574;52.090;5.244;2022-09-03T03:23:56;101072.0;;;23.2;34.11
61676;BME280;47574;52.090;5.244;2022-09-03T03:25:32;101071.0;;;23.22;34.01
61676;BME280;47574;52.090;5.244;2022-09-03T03:27:10;101069.0;;;23.04;34.25
61676;BME280;47574;52.090;5.244;2022-09-03T03:30:26;101067.0;;;23.1;34.25
61676;BME280;47574;52.090;5.244;2022-09-03T03:32:02;101067.0;;;23.17;34.14
61676;BME280;47574;52.090;5.244;2022-09-03T03:33:39;101073.0;;;23.3;34.0
61676;BME280;47574;52.090;5.244;2022-09-03T03:36:52;101073.0;;;23.3;33.93
61676;BME280;47574;52.090;5.244;2022-09-03T03:38:28;101078.0;;;23.37;33.81
61676;BME280;47574;52.090;5.244;2022-09-03T03:41:42;101083.0;;;23.14;34.18
61676;BME280;47574;52.090;5.244;2022-09-03T03:44:55;101082.0;;;23.1;34.24
61676;BME280;47574;52.090;5.244;2022-09-03T03:46:33;101083.0;;;23.26;34.06
61676;BME280;47574;52.090;5.244;2022-09-03T03:48:10;101080.0;;;23.07;34.35
61676;BME280;47574;52.090;5.244;2022-09-03T03:51:22;101077.0;;;23.07;34.35
61676;BME280;47574;52.090;5.244;2022-09-03T03:52:59;101077.0;;;23.21;34.24
61676;BME280;47574;52.090;5.244;2022-09-03T03:54:35;101080.0;;;23.27;34.15
61676;BME280;47574;52.090;5.244;2022-09-03T03:57:50;101080.0;;;23.21;34.21
61676;BME280;47574;52.090;5.244;2022-09-03T03:59:26;101086.0;;;23.19;34.24
61676;BME280;47574;52.090;5.244;2022-09-03T04:01:04;101080.0;;;23.05;34.54
61676;BME280;47574;52.090;5.244;2022-09-03T04:02:41;101084.0;;;22.95;34.6
61676;BME280;47574;52.090;5.244;2022-09-03T04:05:55;101077.0;;;22.89;34.74
61676;BME280;47574;52.090;5.244;2022-09-03T04:07:31;101073.0;;;22.84;34.83
61676;BME280;47574;52.090;5.244;2022-09-03T04:09:07;101076.0;;;22.77;35.04
61676;BME280;47574;52.090;5.244;2022-09-03T04:12:19;101071.0;;;22.83;34.96
61676;BME280;47574;52.090;5.244;2022-09-03T04:13:55;101075.0;;;22.84;34.82
61676;BME280;47574;52.090;5.244;2022-09-03T04:15:31;101077.0;;;22.83;34.87
61676;BME280;47574;52.090;5.244;2022-09-03T04:18:44;101078.0;;;22.74;35.07
61676;BME280;47574;52.090;5.244;2022-09-03T04:20:21;101075.0;;;22.69;35.17
61676;BME280;47574;52.090;5.244;2022-09-03T04:21:57;101073.0;;;22.57;35.33
61676;BME280;47574;52.090;5.244;2022-09-03T04:23:36;101073.0;;;22.63;35.26
61676;BME280;47574;52.090;5.244;2022-09-03T04:26:49;101072.0;;;22.67;35.24
61676;BME280;47574;52.090;5.244;2022-09-03T04:28:26;101069.0;;;22.58;35.31
61676;BME280;47574;52.090;5.244;2022-09-03T04:30:04;101070.0;;;22.75;35.14
61676;BME280;47574;52.090;5.244;2022-09-03T04:34:28;101067.0;;;22.8;34.96
61676;BME280;47574;52.090;5.244;2022-09-03T04:36:06;101069.0;;;22.86;34.86
61676;BME280;47574;52.090;5.244;2022-09-03T04:39:21;101070.0;;;22.68;35.18
61676;BME280;47574;52.090;5.244;2022-09-03T04:40:58;101071.0;;;22.95;34.74
61676;BME280;47574;52.090;5.244;2022-09-03T04:42:34;101073.0;;;22.78;34.99
61676;BME280;47574;52.090;5.244;2022-09-03T04:45:46;101076.0;;;22.76;35.1
61676;BME280;47574;52.090;5.244;2022-09-03T04:47:23;101080.0;;;22.72;35.18
61676;BME280;47574;52.090;5.244;2022-09-03T04:48:59;101081.0;;;22.76;35.1
61676;BME280;47574;52.090;5.244;2022-09-03T04:52:12;101077.0;;;22.82;34.93
61676;BME280;47574;52.090;5.244;2022-09-03T04:53:53;101077.0;;;22.79;35.08
61676;BME280;47574;52.090;5.244;2022-09-03T04:55:32;101074.0;;;22.71;35.15
61676;BME280;47574;52.090;5.244;2022-09-03T04:57:09;101076.0;;;22.61;35.39
61676;BME280;47574;52.090;5.244;2022-09-03T05:00:23;101074.0;;;22.61;35.4
61676;BME280;47574;52.090;5.244;2022-09-03T05:01:59;101075.0;;;22.69;35.24
61676;BME280;47574;52.090;5.244;2022-09-03T05:03:36;101075.0;;;22.72;35.17
61676;BME280;47574;52.090;5.244;2022-09-03T05:06:49;101081.0;;;22.67;35.4
61676;BME280;47574;52.090;5.244;2022-09-03T05:08:25;101080.0;;;22.62;35.43
61676;BME280;47574;52.090;5.244;2022-09-03T05:10:04;101080.0;;;22.66;35.32
61676;BME280;47574;52.090;5.244;2022-09-03T05:11:42;101077.0;;;22.6;35.47
61676;BME280;47574;52.090;5.244;2022-09-03T05:14:55;101078.0;;;22.54;35.56
61676;BME280;47574;52.090;5.244;2022-09-03T05:16:31;101081.0;;;22.5;35.67
61676;BME280;47574;52.090;5.244;2022-09-03T05:18:07;101077.0;;;22.55;35.6
61676;BME280;47574;52.090;5.244;2022-09-03T05:21:22;101074.0;;;22.56;35.62
61676;BME280;47574;52.090;5.244;2022-09-03T05:23:00;101072.0;;;22.38;35.87
61676;BME280;47574;52.090;5.244;2022-09-03T05:24:37;101071.0;;;22.46;35.79
61676;BME280;47574;52.090;5.244;2022-09-03T05:27:53;101072.0;;;22.38;36.03
61676;BME280;47574;52.090;5.244;2022-09-03T05:29:29;101071.0;;;22.4;36.08
61676;BME280;47574;52.090;5.244;2022-09-03T05:31:07;101073.0;;;22.39;35.89
61676;BME280;47574;52.090;5.244;2022-09-03T05:32:44;101074.0;;;22.42;35.89
61676;BME280;47574;52.090;5.244;2022-09-03T05:36:00;101071.0;;;22.54;35.68
61676;BME280;47574;52.090;5.244;2022-09-03T05:39:12;101072.0;;;22.28;36.28
61676;BME280;47574;52.090;5.244;2022-09-03T05:42:27;101072.0;;;22.36;36.06
61676;BME280;47574;52.090;5.244;2022-09-03T05:44:05;101074.0;;;22.43;35.93
61676;BME280;47574;52.090;5.244;2022-09-03T05:45:41;101073.0;;;22.44;35.92
61676;BME280;47574;52.090;5.244;2022-09-03T05:47:17;101074.0;;;22.29;36.17
61676;BME280;47574;52.090;5.244;2022-09-03T05:50:30;101074.0;;;22.39;36.17
61676;BME280;47574;52.090;5.244;2022-09-03T05:52:06;101076.0;;;22.54;35.93
61676;BME280;47574;52.090;5.244;2022-09-03T05:53:43;101084.0;;;22.3;36.25
61676;BME280;47574;52.090;5.244;2022-09-03T05:56:56;101082.0;;;22.54;35.97
61676;BME280;47574;52.090;5.244;2022-09-03T05:58:34;101082.0;;;22.7;35.71
61676;BME280;47574;52.090;5.244;2022-09-03T06:00:11;101080.0;;;22.57;35.96
61676;BME280;47574;52.090;5.244;2022-09-03T06:03:25;101077.0;;;22.54;35.99
61676;BME280;47574;52.090;5.244;2022-09-03T06:05:01;101080.0;;;22.69;35.71
61676;BME280;47574;52.090;5.244;2022-09-03T06:06:38;101081.0;;;22.48;36.1
61676;BME280;47574;52.090;5.244;2022-09-03T06:08:15;101081.0;;;22.53;35.94
61676;BME280;47574;52.090;5.244;2022-09-03T06:11:30;101080.0;;;22.62;35.83
61676;BME280;47574;52.090;5.244;2022-09-03T06:13:06;101082.0;;;22.6;35.89
61676;BME280;47574;52.090;5.244;2022-09-03T06:14:42;101081.0;;;22.69;35.72
61676;BME280;47574;52.090;5.244;2022-09-03T06:17:55;101083.0;;;22.66;35.86
61676;BME280;47574;52.090;5.244;2022-09-03T06:19:31;101083.0;;;22.61;35.96
61676;BME280;47574;52.090;5.244;2022-09-03T06:21:08;101083.0;;;22.65;35.81
61676;BME280;47574;52.090;5.244;2022-09-03T06:22:47;101086.0;;;22.77;35.71
61676;BME280;47574;52.090;5.244;2022-09-03T06:26:04;101082.0;;;22.87;35.53
61676;BME280;47574;52.090;5.244;2022-09-03T06:27:41;101083.0;;;22.62;36.17
61676;BME280;47574;52.090;5.244;2022-09-03T06:29:19;101080.0;;;22.76;35.92
61676;BME280;47574;52.090;5.244;2022-09-03T06:32:42;101072.0;;;22.84;35.71
61676;BME280;47574;52.090;5.244;2022-09-03T06:34:18;101073.0;;;22.94;35.44
61676;BME280;47574;52.090;5.244;2022-09-03T06:35:57;101074.0;;;22.87;35.62
61676;BME280;47574;52.090;5.244;2022-09-03T06:37:38;101072.0;;;22.81;35.78
61676;BME280;47574;52.090;5.244;2022-09-03T06:40:52;101076.0;;;22.86;35.81
61676;BME280;47574;52.090;5.244;2022-09-03T06:42:30;101080.0;;;22.99;35.69
61676;BME280;47574;52.090;5.244;2022-09-03T06:44:10;101075.0;;;23.0;35.67
61676;BME280;47574;52.090;5.244;2022-09-03T06:45:55;101074.0;;;22.98;35.61
61676;BME280;47574;52.090;5.244;2022-09-03T06:49:09;101076.0;;;23.02;35.36
61676;BME280;47574;52.090;5.244;2022-09-03T06:51:04;101078.0;;;23.16;35.47
61676;BME280;47574;52.090;5.244;2022-09-03T06:52:40;101080.0;;;23.43;35.21
61676;BME280;47574;52.090;5.244;2022-09-03T06:54:17;101082.0;;;23.46;34.94
61676;BME280;47574;52.090;5.244;2022-09-03T06:57:32;101080.0;;;23.51;35.1
61676;BME280;47574;52.090;5.244;2022-09-03T06:59:10;101080.0;;;23.72;34.65
61676;BME280;47574;52.090;5.244;2022-09-03T07:00:46;101083.0;;;23.57;35.03
61676;BME280;47574;52.090;5.244;2022-09-03T07:04:01;101085.0;;;23.52;35.24
61676;BME280;47574;52.090;5.244;2022-09-03T07:05:38;101083.0;;;23.41;35.17
61676;BME280;47574;52.090;5.244;2022-09-03T07:07:15;101083.0;;;23.42;35.21
61676;BME280;47574;52.090;5.244;2022-09-03T07:08:51;101080.0;;;23.58;34.94
61676;BME280;47574;52.090;5.244;2022-09-03T07:12:05;101080.0;;;23.87;34.56
61676;BME280;47574;52.090;5.244;2022-09-03T07:13:45;101078.0;;;23.71;34.99
61676;BME280;47574;52.090;5.244;2022-09-03T07:15:22;101081.0;;;23.73;34.82
61676;BME280;47574;52.090;5.244;2022-09-03T07:18:35;101085.0;;;23.67;35.15
61676;BME280;47574;52.090;5.244;2022-09-03T07:20:12;101082.0;;;23.91;34.6
61676;BME280;47574;52.090;5.244;2022-09-03T07:21:48;101080.0;;;24.15;34.29
61676;BME280;47574;52.090;5.244;2022-09-03T07:23:25;101080.0;;;24.13;34.49
61676;BME280;47574;52.090;5.244;2022-09-03T07:26:40;101081.0;;;24.08;34.5
61676;BME280;47574;52.090;5.244;2022-09-03T07:28:16;101081.0;;;24.18;34.24
61676;BME280;47574;52.090;5.244;2022-09-03T07:29:52;101080.0;;;24.12;34.67
61676;BME280;47574;52.090;5.244;2022-09-03T07:33:07;101080.0;;;24.4;34.29
61676;BME280;47574;52.090;5.244;2022-09-03T07:34:44;101084.0;;;24.38;34.46
61676;BME280;47574;52.090;5.244;2022-09-03T07:36:21;101081.0;;;24.49;34.32
61676;BME280;47574;52.090;5.244;2022-09-03T07:39:34;101080.0;;;24.54;34.19
61676;BME280;47574;52.090;5.244;2022-09-03T07:41:12;101080.0;;;24.7;33.94
61676;BME280;47574;52.090;5.244;2022-09-03T07:42:48;101088.0;;;24.67;34.08
61676;BME280;47574;52.090;5.244;2022-09-03T07:44:32;101086.0;;;24.56;34.17
61676;BME280;47574;52.090;5.244;2022-09-03T07:47:46;101083.0;;;24.75;33.87
61676;BME280;47574;52.090;5.244;2022-09-03T07:49:22;101084.0;;;24.95;33.78
61676;BME280;47574;52.090;5.244;2022-09-03T07:51:00;101084.0;;;25.12;33.49
61676;BME280;47574;52.090;5.244;2022-09-03T07:54:13;101086.0;;;24.99;33.74
61676;BME280;47574;52.090;5.244;2022-09-03T07:55:50;101087.0;;;24.96;33.65
61676;BME280;47574;52.090;5.244;2022-09-03T07:57:27;101089.0;;;24.95;33.74
61676;BME280;47574;52.090;5.244;2022-09-03T07:59:03;101089.0;;;25.27;33.18
61676;BME280;47574;52.090;5.244;2022-09-03T08:02:16;101096.0;;;25.32;33.14
61676;BME280;47574;52.090;5.244;2022-09-03T08:03:52;101093.0;;;25.56;32.78
61676;BME280;47574;52.090;5.244;2022-09-03T08:05:31;101097.0;;;25.63;32.72
61676;BME280;47574;52.090;5.244;2022-09-03T08:08:44;101098.0;;;25.64;32.67
61676;BME280;47574;52.090;5.244;2022-09-03T08:10:21;101099.0;;;25.86;32.33
61676;BME280;47574;52.090;5.244;2022-09-03T08:11:57;101099.0;;;25.9;31.88
61676;BME280;47574;52.090;5.244;2022-09-03T08:15:10;101102.0;;;26.01;31.88
61676;BME280;47574;52.090;5.244;2022-09-03T08:16:47;101101.0;;;26.12;31.74
61676;BME280;47574;52.090;5.244;2022-09-03T08:18:23;101102.0;;;25.97;31.62
61676;BME280;47574;52.090;5.244;2022-09-03T08:20:00;101103.0;;;25.94;32.18
61676;BME280;47574;52.090;5.244;2022-09-03T08:23:13;101101.0;;;26.06;31.42
61676;BME280;47574;52.090;5.244;2022-09-03T08:24:49;101101.0;;;25.85;31.87
61676;BME280;47574;52.090;5.244;2022-09-03T08:26:25;101099.0;;;26.23;31.32
61676;BME280;47574;52.090;5.244;2022-09-03T08:29:38;101108.0;;;26.15;31.64
61676;BME280;47574;52.090;5.244;2022-09-03T08:31:16;101107.0;;;26.15;31.54
61676;BME280;47574;52.090;5.244;2022-09-03T08:32:54;101105.0;;;26.2;31.19
61676;BME280;47574;52.090;5.244;2022-09-03T08:36:08;101107.0;;;26.21;31.23
61676;BME280;47574;52.090;5.244;2022-09-03T08:37:48;101107.0;;;26.19;31.39
61676;BME280;47574;52.090;5.244;2022-09-03T08:39:24;101099.0;;;26.36;31.07
61676;BME280;47574;52.090;5.244;2022-09-03T08:41:03;101100.0;;;26.52;30.9
61676;BME280;47574;52.090;5.244;2022-09-03T08:44:42;101097.0;;;26.26;30.92
61676;BME280;47574;52.090;5.244;2022-09-03T08:46:23;101102.0;;;26.44;30.8
61676;BME280;47574;52.090;5.244;2022-09-03T08:48:03;101105.0;;;26.48;31.03
61676;BME280;47574;52.090;5.244;2022-09-03T08:49:45;101099.0;;;26.58;30.93
61676;BME280;47574;52.090;5.244;2022-09-03T08:51:27;101103.0;;;26.68;30.66
61676;BME280;47574;52.090;5.244;2022-09-03T08:54:48;101106.0;;;26.76;30.52
61676;BME280;47574;52.090;5.244;2022-09-03T08:56:29;101105.0;;;26.78;30.92
61676;BME280;47574;52.090;5.244;2022-09-03T08:58:10;101108.0;;;26.93;30.47
61676;BME280;47574;52.090;5.244;2022-09-03T08:59:51;101105.0;;;26.78;30.65
61676;BME280;47574;52.090;5.244;2022-09-03T09:03:28;101101.0;;;27.01;30.2
61676;BME280;47574;52.090;5.244;2022-09-03T09:05:18;101102.0;;;26.97;30.16
61676;BME280;47574;52.090;5.244;2022-09-03T09:07:06;101105.0;;;27.08;30.19
61676;BME280;47574;52.090;5.244;2022-09-03T09:08:56;101102.0;;;27.04;30.16
61676;BME280;47574;52.090;5.244;2022-09-03T09:10:43;101107.0;;;27.16;30.39
61676;BME280;47574;52.090;5.244;2022-09-03T09:12:39;101107.0;;;27.19;30.0
61676;BME280;47574;52.090;5.244;2022-09-03T09:14:31;101103.0;;;27.27;29.83
61676;BME280;47574;52.090;5.244;2022-09-03T09:18:05;101102.0;;;27.33;30.09
61676;BME280;47574;52.090;5.244;2022-09-03T09:19:58;101101.0;;;27.25;29.89
61676;BME280;47574;52.090;5.244;2022-09-03T09:21:49;101102.0;;;27.1;30.14
61676;BME280;47574;52.090;5.244;2022-09-03T09:23:30;101102.0;;;27.21;30.08
61676;BME280;47574;52.090;5.244;2022-09-03T09:25:15;101099.0;;;27.39;29.73
61676;BME280;47574;52.090;5.244;2022-09-03T09:26:56;101100.0;;;27.11;29.72
61676;BME280;47574;52.090;5.244;2022-09-03T09:30:16;101099.0;;;27.19;29.8
61676;BME280;47574;52.090;5.244;2022-09-03T09:31:54;101095.0;;;27.48;29.42
61676;BME280;47574;52.090;5.244;2022-09-03T09:33:31;101087.0;;;27.44;29.64
61676;BME280;47574;52.090;5.244;2022-09-03T09:36:49;101093.0;;;27.5;29.75
61676;BME280;47574;52.090;5.244;2022-09-03T09:38:28;101097.0;;;27.57;29.76
61676;BME280;47574;52.090;5.244;2022-09-03T09:40:06;101095.0;;;27.7;29.57
61676;BME280;47574;52.090;5.244;2022-09-03T09:41:42;101103.0;;;27.83;29.46
61676;BME280;47574;52.090;5.244;2022-09-03T09:45:08;101102.0;;;27.77;29.23
61676;BME280;47574;52.090;5.244;2022-09-03T09:46:46;101101.0;;;27.86;29.02
61676;BME280;47574;52.090;5.244;2022-09-03T09:48:26;101098.0;;;27.96;29.08
61676;BME280;47574;52.090;5.244;2022-09-03T09:50:16;101098.0;;;27.95;29.18
61676;BME280;47574;52.090;5.244;2022-09-03T09:53:41;101102.0;;;27.93;29.32
61676;BME280;47574;52.090;5.244;2022-09-03T09:55:18;101102.0;;;28.03;29.05
61676;BME280;47574;52.090;5.244;2022-09-03T09:57:01;101102.0;;;27.95;28.86
61676;BME280;47574;52.090;5.244;2022-09-03T09:58:37;101105.0;;;28.06;28.7
61676;BME280;47574;52.090;5.244;2022-09-03T10:02:07;101102.0;;;27.99;28.79
61676;BME280;47574;52.090;5.244;2022-09-03T10:03:48;101103.0;;;28.3;28.56
61676;BME280;47574;52.090;5.244;2022-09-03T10:05:28;101094.0;;;28.28;28.37
61676;BME280;47574;52.090;5.244;2022-09-03T10:07:20;101102.0;;;28.23;28.41
61676;BME280;47574;52.090;5.244;2022-09-03T10:09:05;101098.0;;;28.47;28.11
61676;BME280;47574;52.090;5.244;2022-09-03T10:12:27;101101.0;;;28.45;27.95
61676;BME280;47574;52.090;5.244;2022-09-03T10:14:10;101099.0;;;28.49;27.81
61676;BME280;47574;52.090;5.244;2022-09-03T10:15:59;101100.0;;;28.45;27.82
61676;BME280;47574;52.090;5.244;2022-09-03T10:17:43;101101.0;;;28.44;27.65
61676;BME280;47574;52.090;5.244;2022-09-03T10:19:28;101097.0;;;28.35;27.83
61676;BME280;47574;52.090;5.244;2022-09-03T10:21:23;101101.0;;;28.57;27.66
61676;BME280;47574;52.090;5.244;2022-09-03T10:24:55;101093.0;;;28.48;27.99
61676;BME280;47574;52.090;5.244;2022-09-03T10:26:35;101095.0;;;28.65;27.86
61676;BME280;47574;52.090;5.244;2022-09-03T10:28:12;101092.0;;;28.9;27.31
61676;BME280;47574;52.090;5.244;2022-09-03T10:29:48;101090.0;;;28.99;27.37
61676;BME280;47574;52.090;5.244;2022-09-03T10:33:22;101088.0;;;28.72;27.42
61676;BME280;47574;52.090;5.244;2022-09-03T10:35:05;101087.0;;;28.81;27.23
61676;BME280;47574;52.090;5.244;2022-09-03T10:36:59;101083.0;;;28.93;27.17
61676;BME280;47574;52.090;5.244;2022-09-03T10:38:41;101083.0;;;28.97;27.05
61676;BME280;47574;52.090;5.244;2022-09-03T10:40:25;101085.0;;;29.02;26.94
61676;BME280;47574;52.090;5.244;2022-09-03T10:42:19;101086.0;;;28.94;26.9
61676;BME280;47574;52.090;5.244;2022-09-03T10:44:39;101087.0;;;29.1;26.8
61676;BME280;47574;52.090;5.244;2022-09-03T10:46:25;101088.0;;;29.13;26.9
61676;BME280;47574;52.090;5.244;2022-09-03T10:50:26;101080.0;;;29.29;26.91
61676;BME280;47574;52.090;5.244;2022-09-03T10:52:10;101081.0;;;29.29;26.92
61676;BME280;47574;52.090;5.244;2022-09-03T10:54:08;101077.0;;;29.41;26.64
61676;BME280;47574;52.090;5.244;2022-09-03T10:55:58;101077.0;;;29.31;26.54
61676;BME280;47574;52.090;5.244;2022-09-03T10:57:45;101078.0;;;29.04;26.9
61676;BME280;47574;52.090;5.244;2022-09-03T10:59:36;101075.0;;;29.31;26.8
61676;BME280;47574;52.090;5.244;2022-09-03T11:01:26;101074.0;;;29.39;26.71
61676;BME280;47574;52.090;5.244;2022-09-03T11:05:16;101070.0;;;29.36;26.47
61676;BME280;47574;52.090;5.244;2022-09-03T11:08:41;101077.0;;;29.37;26.63
61676;BME280;47574;52.090;5.244;2022-09-03T11:10:22;101075.0;;;29.5;26.39
61676;BME280;47574;52.090;5.244;2022-09-03T11:12:04;101073.0;;;29.63;26.44
61676;BME280;47574;52.090;5.244;2022-09-03T11:13:46;101074.0;;;29.7;26.67
61676;BME280;47574;52.090;5.244;2022-09-03T11:17:11;101074.0;;;29.82;26.33
61676;BME280;47574;52.090;5.244;2022-09-03T11:18:54;101072.0;;;29.72;26.34
61676;BME280;47574;52.090;5.244;2022-09-03T11:20:33;101067.0;;;30.0;26.14
61676;BME280;47574;52.090;5.244;2022-09-03T11:22:10;101064.0;;;29.83;26.29